Time;durP1;ratioP1;P1;durP2;ratioP2;P2;SDS_P1;SDS_P2;PMS_P1;PMS_P2;Temp;Humidity;BMP_temperature;BMP_pressure;BME280_temperature;BME280_humidity;BME280_pressure;Samples;Min_cycle;Max_cycle;Signal;HPM_P1;HPM_P2
2023/07/26 00:02:24;;;;;;;0.30;0.30;;;17.20;69.70;;;;;;5074898;28;20060;-61
2023/07/26 00:04:50;;;;;;;0.60;0.60;;;17.20;69.70;;;;;;5073662;28;20024;-61
2023/07/26 00:07:16;;;;;;;0.50;0.47;;;17.20;69.90;;;;;;5069149;28;20119;-61
2023/07/26 00:09:41;;;;;;;0.50;0.50;;;17.10;69.90;;;;;;5069047;28;20139;-61
2023/07/26 00:12:07;;;;;;;0.50;0.40;;;17.10;70.00;;;;;;5065130;28;20055;-61
2023/07/26 00:14:33;;;;;;;0.65;0.50;;;17.10;70.10;;;;;;5075712;28;20526;-61
2023/07/26 00:16:58;;;;;;;1.75;0.88;;;17.10;70.20;;;;;;5077581;28;20439;-61
2023/07/26 00:19:24;;;;;;;0.60;0.60;;;17.10;70.40;;;;;;5078102;28;20024;-61
2023/07/26 00:21:50;;;;;;;1.27;0.60;;;17.10;70.40;;;;;;5066070;28;20553;-60
2023/07/26 00:24:16;;;;;;;0.50;0.47;;;17.10;70.40;;;;;;5076998;28;20516;-60
2023/07/26 00:26:41;;;;;;;0.73;0.50;;;17.10;70.50;;;;;;5078931;28;20038;-60
2023/07/26 00:29:07;;;;;;;0.50;0.50;;;17.10;70.60;;;;;;5082368;28;20039;-61
2023/07/26 00:31:33;;;;;;;0.60;0.60;;;17.10;70.60;;;;;;5082823;28;20028;-61
2023/07/26 00:33:58;;;;;;;0.40;0.30;;;17.10;70.60;;;;;;5076079;28;20029;-61
2023/07/26 00:36:24;;;;;;;0.50;0.40;;;17.10;70.60;;;;;;5082405;28;20024;-61
2023/07/26 00:38:50;;;;;;;0.60;0.60;;;17.10;70.70;;;;;;5079656;28;20020;-61
2023/07/26 00:41:15;;;;;;;1.83;0.88;;;17.20;70.90;;;;;;5075315;28;20135;-61
2023/07/26 00:43:41;;;;;;;0.65;0.65;;;17.20;71.00;;;;;;5077711;28;20493;-61
2023/07/26 00:46:07;;;;;;;0.77;0.50;;;17.20;70.90;;;;;;5078729;28;20074;-60
2023/07/26 00:48:36;;;;;;;0.50;0.50;;;17.20;71.00;;;;;;5074969;28;20044;-60
2023/07/26 00:51:02;;;;;;;1.52;0.82;;;17.30;71.00;;;;;;5085332;28;20092;-61
2023/07/26 00:53:28;;;;;;;2.22;1.45;;;17.30;71.10;;;;;;5078480;28;20042;-61
2023/07/26 00:55:55;;;;;;;1.13;0.90;;;17.30;71.00;;;;;;5075187;28;20028;-61
2023/07/26 00:58:21;;;;;;;0.70;0.70;;;17.30;70.90;;;;;;5075002;28;20027;-61
2023/07/26 01:00:47;;;;;;;0.95;0.70;;;17.30;71.00;;;;;;5083626;28;20032;-61
2023/07/26 01:03:14;;;;;;;1.20;1.10;;;17.30;71.10;;;;;;5082041;28;20091;-61
2023/07/26 01:06:02;;;;;;;1.10;1.00;;;17.30;71.10;;;;;;5077167;28;20600;-61
2023/07/26 01:08:51;;;;;;;0.70;0.70;;;17.40;71.10;;;;;;5074359;28;20052;-61
2023/07/26 01:11:39;;;;;;;0.70;0.60;;;17.40;71.00;;;;;;5080305;28;20545;-61
2023/07/26 01:14:32;;;;;;;0.85;0.57;;;17.30;71.10;;;;;;5062647;28;20127;-61
2023/07/26 01:16:58;;;;;;;1.02;0.80;;;17.30;71.10;;;;;;5073221;28;20083;-61
2023/07/26 01:19:24;;;;;;;1.17;1.08;;;17.20;71.20;;;;;;5080248;28;20062;-61
2023/07/26 01:21:50;;;;;;;1.95;0.57;;;17.20;71.30;;;;;;5078780;28;20028;-61
2023/07/26 01:24:15;;;;;;;0.90;0.70;;;17.20;71.40;;;;;;5083213;28;20082;-61
2023/07/26 01:26:41;;;;;;;2.28;0.90;;;17.20;71.40;;;;;;5082086;28;20097;-61
2023/07/26 01:29:06;;;;;;;0.68;0.52;;;17.10;71.40;;;;;;5079052;28;20114;-61
2023/07/26 01:31:33;;;;;;;1.27;1.05;;;17.00;71.40;;;;;;5076584;28;20021;-61
2023/07/26 01:34:01;;;;;;;0.95;0.90;;;17.00;71.60;;;;;;5078213;28;20111;-61
2023/07/26 01:36:29;;;;;;;1.20;1.02;;;16.90;71.70;;;;;;5073730;28;20028;-61
2023/07/26 01:38:57;;;;;;;0.65;0.60;;;16.90;71.70;;;;;;5079356;28;20028;-61
2023/07/26 01:41:23;;;;;;;1.40;0.75;;;16.80;71.70;;;;;;5073591;28;20082;-61
2023/07/26 01:43:49;;;;;;;1.75;0.70;;;16.70;71.80;;;;;;5074500;28;20127;-61
2023/07/26 01:46:15;;;;;;;1.00;0.90;;;16.70;71.90;;;;;;5082621;28;20139;-61
2023/07/26 01:48:41;;;;;;;1.80;0.98;;;16.60;72.00;;;;;;5070196;28;20066;-61
2023/07/26 01:51:07;;;;;;;1.05;0.68;;;16.50;72.10;;;;;;5076471;28;20387;-61
2023/07/26 01:53:34;;;;;;;1.02;0.65;;;16.50;72.20;;;;;;5080311;28;20523;-61
2023/07/26 01:56:02;;;;;;;0.70;0.70;;;16.40;72.20;;;;;;5077631;28;20085;-60
2023/07/26 01:58:28;;;;;;;0.68;0.60;;;16.30;72.40;;;;;;5069294;28;20526;-61
2023/07/26 02:00:54;;;;;;;0.77;0.75;;;16.30;72.50;;;;;;5078179;28;20116;-61
2023/07/26 02:03:20;;;;;;;1.10;0.80;;;16.20;72.50;;;;;;5078293;28;20024;-61
2023/07/26 02:05:46;;;;;;;0.75;0.70;;;16.30;72.60;;;;;;5066334;28;20415;-61
2023/07/26 02:08:13;;;;;;;0.68;0.68;;;16.20;72.60;;;;;;5074076;28;20028;-61
2023/07/26 02:10:39;;;;;;;0.50;0.50;;;16.20;72.80;;;;;;5075462;28;20063;-60
2023/07/26 02:13:05;;;;;;;0.90;0.70;;;16.10;72.70;;;;;;5073539;28;20089;-61
2023/07/26 02:15:31;;;;;;;0.95;0.80;;;16.10;72.80;;;;;;5073811;28;20035;-61
2023/07/26 02:17:57;;;;;;;0.75;0.63;;;16.00;72.80;;;;;;5071763;28;20592;-61
2023/07/26 02:20:23;;;;;;;0.60;0.60;;;16.00;73.00;;;;;;5078935;28;20032;-61
2023/07/26 02:22:49;;;;;;;1.15;0.98;;;16.00;73.00;;;;;;5071014;28;20032;-61
2023/07/26 02:25:15;;;;;;;3.08;1.10;;;15.90;73.10;;;;;;5078253;28;20555;-60
2023/07/26 02:27:41;;;;;;;0.95;0.82;;;15.90;73.10;;;;;;5074331;28;20059;-61
2023/07/26 02:30:07;;;;;;;0.98;0.57;;;15.90;73.20;;;;;;5074468;28;20427;-61
2023/07/26 02:32:33;;;;;;;0.77;0.68;;;15.90;73.30;;;;;;5082005;28;20114;-61
2023/07/26 02:34:59;;;;;;;3.65;0.93;;;15.80;73.20;;;;;;5070070;28;20115;-61
2023/07/26 02:37:25;;;;;;;0.73;0.63;;;15.80;73.30;;;;;;5076525;28;20569;-61
2023/07/26 02:39:51;;;;;;;1.50;1.38;;;15.80;73.40;;;;;;5082414;28;20032;-61
2023/07/26 02:42:17;;;;;;;1.10;0.60;;;15.70;73.40;;;;;;5072162;28;20020;-61
2023/07/26 02:44:44;;;;;;;1.65;1.15;;;15.70;73.30;;;;;;5082182;28;20410;-61
2023/07/26 02:47:10;;;;;;;1.42;0.85;;;15.60;73.20;;;;;;5075795;28;20036;-61
2023/07/26 02:49:36;;;;;;;0.70;0.70;;;15.60;73.30;;;;;;5082867;28;20111;-60
2023/07/26 02:52:01;;;;;;;1.33;0.80;;;15.60;73.40;;;;;;5083780;28;20150;-61
2023/07/26 02:54:27;;;;;;;1.55;1.13;;;15.60;73.40;;;;;;5079804;28;20041;-61
2023/07/26 02:56:53;;;;;;;1.13;1.00;;;15.50;73.40;;;;;;5078319;28;20034;-61
2023/07/26 02:59:18;;;;;;;0.70;0.70;;;15.50;73.40;;;;;;5082658;28;20097;-60
2023/07/26 03:01:44;;;;;;;1.73;0.70;;;15.40;73.40;;;;;;5077394;28;20054;-60
2023/07/26 03:04:11;;;;;;;0.80;0.80;;;15.40;73.40;;;;;;5077826;28;20051;-60
2023/07/26 03:06:37;;;;;;;1.92;1.10;;;15.40;73.50;;;;;;5074165;28;20522;-61
2023/07/26 03:09:03;;;;;;;0.70;0.65;;;15.30;73.60;;;;;;5079767;28;20351;-61
2023/07/26 03:11:28;;;;;;;0.93;0.88;;;15.30;73.60;;;;;;5076840;28;20028;-61
2023/07/26 03:13:55;;;;;;;1.63;1.20;;;15.20;73.50;;;;;;5073095;28;20048;-61
2023/07/26 03:16:21;;;;;;;1.50;1.10;;;15.20;73.60;;;;;;5079783;28;20035;-61
2023/07/26 03:18:47;;;;;;;1.10;0.88;;;15.20;73.60;;;;;;5079395;28;20052;-61
2023/07/26 03:21:13;;;;;;;2.03;0.82;;;15.20;73.70;;;;;;5079785;28;20063;-61
2023/07/26 03:23:39;;;;;;;1.17;0.88;;;15.20;73.80;;;;;;5075239;28;20031;-61
2023/07/26 03:26:04;;;;;;;2.65;1.13;;;15.10;73.60;;;;;;5078555;28;20085;-60
2023/07/26 03:28:30;;;;;;;0.98;0.88;;;15.10;73.70;;;;;;5070229;28;20037;-61
2023/07/26 03:30:56;;;;;;;0.90;0.70;;;15.10;73.70;;;;;;5078779;28;20060;-60
2023/07/26 03:33:23;;;;;;;2.33;1.20;;;15.00;73.60;;;;;;5080911;28;20067;-60
2023/07/26 03:35:49;;;;;;;1.40;0.98;;;15.00;73.60;;;;;;5080163;28;20383;-61
2023/07/26 03:38:14;;;;;;;1.73;1.05;;;15.00;73.70;;;;;;5076779;28;20028;-60
2023/07/26 03:40:40;;;;;;;1.05;0.93;;;15.00;73.70;;;;;;5080488;28;20078;-60
2023/07/26 03:43:07;;;;;;;1.73;1.13;;;15.00;73.80;;;;;;5078960;28;20029;-60
2023/07/26 03:45:33;;;;;;;1.77;0.80;;;14.90;73.70;;;;;;5082170;28;20032;-61
2023/07/26 03:47:59;;;;;;;2.05;1.33;;;14.90;73.70;;;;;;5072232;28;20043;-61
2023/07/26 03:50:25;;;;;;;1.58;1.27;;;14.80;73.80;;;;;;5076301;28;20028;-61
2023/07/26 03:52:51;;;;;;;1.55;0.65;;;14.80;73.80;;;;;;5078175;28;20055;-61
2023/07/26 03:55:17;;;;;;;1.13;1.02;;;14.80;73.80;;;;;;5079431;28;20036;-60
2023/07/26 03:57:43;;;;;;;0.95;0.95;;;14.80;73.90;;;;;;5074819;28;20039;-60
2023/07/26 04:00:09;;;;;;;1.23;0.98;;;14.80;74.00;;;;;;5078956;28;20028;-61
2023/07/26 04:02:34;;;;;;;1.10;1.00;;;14.70;74.00;;;;;;5071449;28;20099;-61
2023/07/26 04:05:00;;;;;;;2.00;1.33;;;14.70;74.00;;;;;;5073619;28;20118;-60
2023/07/26 04:07:26;;;;;;;1.15;1.05;;;14.70;74.00;;;;;;5074340;28;20513;-60
2023/07/26 04:09:51;;;;;;;2.35;1.40;;;14.70;74.10;;;;;;5074537;28;20036;-61
2023/07/26 04:12:17;;;;;;;1.65;1.10;;;14.70;74.10;;;;;;5077269;28;20051;-60
2023/07/26 04:14:43;;;;;;;1.35;1.10;;;14.70;74.10;;;;;;5071565;28;20655;-60
2023/07/26 04:17:09;;;;;;;1.50;1.15;;;14.70;74.10;;;;;;5071938;28;20440;-61
2023/07/26 04:19:34;;;;;;;3.95;1.13;;;14.70;74.10;;;;;;5069235;28;20048;-60
2023/07/26 04:22:00;;;;;;;1.60;1.20;;;14.70;74.10;;;;;;5069894;28;20042;-61
2023/07/26 04:24:26;;;;;;;1.05;0.98;;;14.80;74.30;;;;;;5075670;28;20047;-61
2023/07/26 04:26:52;;;;;;;2.83;0.95;;;14.80;74.20;;;;;;5073406;28;20024;-61
2023/07/26 04:29:18;;;;;;;1.27;0.98;;;14.80;74.20;;;;;;5076964;28;20028;-60
2023/07/26 04:31:44;;;;;;;1.30;1.15;;;14.90;74.30;;;;;;5069539;28;20701;-61
2023/07/26 04:34:12;;;;;;;1.63;1.25;;;14.90;74.40;;;;;;5072866;28;20116;-60
2023/07/26 04:36:38;;;;;;;2.00;1.30;;;15.00;74.60;;;;;;5073401;28;20090;-61
2023/07/26 04:39:03;;;;;;;1.27;1.17;;;15.00;74.70;;;;;;5058007;28;20063;-61
2023/07/26 04:41:29;;;;;;;2.08;1.00;;;15.00;74.80;;;;;;5070067;28;20039;-60
2023/07/26 04:43:55;;;;;;;1.33;1.00;;;15.10;74.90;;;;;;5071431;28;20036;-61
2023/07/26 04:46:21;;;;;;;0.80;0.80;;;15.10;74.80;;;;;;5073240;28;20044;-61
2023/07/26 04:48:47;;;;;;;1.33;1.23;;;15.20;74.80;;;;;;5080798;28;20032;-61
2023/07/26 04:51:13;;;;;;;1.85;1.15;;;15.20;74.80;;;;;;5075522;28;20036;-61
2023/07/26 04:53:38;;;;;;;1.20;1.10;;;15.20;74.90;;;;;;5074847;28;20028;-61
2023/07/26 04:56:04;;;;;;;0.95;0.75;;;15.20;74.90;;;;;;5079956;28;20036;-61
2023/07/26 04:58:30;;;;;;;1.23;0.95;;;15.20;75.00;;;;;;5076474;28;20778;-61
2023/07/26 05:00:56;;;;;;;1.02;0.93;;;15.30;75.00;;;;;;5071629;28;20024;-61
2023/07/26 05:03:22;;;;;;;3.10;1.25;;;15.30;75.00;;;;;;5083886;28;20032;-61
2023/07/26 05:05:51;;;;;;;0.93;0.90;;;15.40;75.10;;;;;;5071616;28;20115;-61
2023/07/26 05:08:18;;;;;;;1.42;0.90;;;15.40;75.10;;;;;;5076425;28;20064;-61
2023/07/26 05:10:47;;;;;;;1.77;1.30;;;15.40;75.10;;;;;;5080060;28;20044;-61
2023/07/26 05:13:13;;;;;;;1.48;1.05;;;15.50;75.20;;;;;;5090735;28;20089;-61
2023/07/26 05:15:38;;;;;;;1.17;0.80;;;15.50;75.20;;;;;;5077925;28;20028;-61
2023/07/26 05:18:04;;;;;;;1.05;0.73;;;15.60;75.30;;;;;;5077773;28;20092;-61
2023/07/26 05:20:30;;;;;;;1.55;1.05;;;15.70;75.20;;;;;;5083326;28;20024;-61
2023/07/26 05:22:55;;;;;;;2.20;1.45;;;15.80;75.10;;;;;;5079329;28;20168;-61
2023/07/26 05:25:21;;;;;;;1.55;1.10;;;15.90;75.20;;;;;;5074424;28;20060;-61
2023/07/26 05:27:47;;;;;;;1.95;1.50;;;16.00;75.20;;;;;;5073888;28;20036;-61
2023/07/26 05:30:17;;;;;;;2.28;1.70;;;16.10;75.10;;;;;;5070382;28;20490;-61
2023/07/26 05:32:43;;;;;;;3.55;1.80;;;16.20;75.10;;;;;;5078598;28;20028;-61
2023/07/26 05:35:11;;;;;;;1.73;1.50;;;16.30;75.10;;;;;;5077058;28;20488;-61
2023/07/26 05:37:37;;;;;;;2.13;1.90;;;16.30;75.10;;;;;;5078120;28;20375;-61
2023/07/26 05:40:05;;;;;;;2.13;1.88;;;16.40;75.20;;;;;;5075374;28;20033;-61
2023/07/26 05:42:31;;;;;;;1.58;1.38;;;16.40;75.10;;;;;;5074744;28;20095;-61
2023/07/26 05:44:57;;;;;;;1.75;1.35;;;16.50;75.10;;;;;;5071090;28;20024;-61
2023/07/26 05:47:23;;;;;;;2.40;1.38;;;16.50;75.20;;;;;;5074739;28;20040;-62
2023/07/26 05:49:49;;;;;;;3.58;2.17;;;16.50;75.30;;;;;;5072208;28;20016;-61
2023/07/26 05:52:14;;;;;;;1.85;1.33;;;16.50;75.40;;;;;;5076806;28;20094;-62
2023/07/26 05:54:40;;;;;;;2.15;1.50;;;16.50;75.40;;;;;;5076810;28;20111;-61
2023/07/26 05:57:06;;;;;;;2.90;1.40;;;16.50;75.40;;;;;;5078538;28;20043;-61
2023/07/26 05:59:32;;;;;;;2.20;1.40;;;16.60;75.50;;;;;;5077574;28;20031;-61
2023/07/26 06:01:58;;;;;;;1.70;1.23;;;16.50;76.10;;;;;;5073519;28;20054;-61
2023/07/26 06:04:24;;;;;;;2.35;1.45;;;16.60;75.60;;;;;;5071256;28;20037;-61
2023/07/26 06:06:50;;;;;;;1.63;1.05;;;16.60;75.60;;;;;;5071018;28;20059;-61
2023/07/26 06:09:16;;;;;;;2.03;1.50;;;16.60;75.60;;;;;;5072185;28;20040;-61
2023/07/26 06:11:42;;;;;;;1.13;0.98;;;16.70;75.60;;;;;;5058231;28;20558;-61
2023/07/26 06:14:08;;;;;;;1.35;0.88;;;16.70;75.50;;;;;;5078676;28;20032;-61
2023/07/26 06:16:34;;;;;;;3.38;1.50;;;16.80;75.40;;;;;;5078299;28;20016;-59
2023/07/26 06:19:00;;;;;;;2.63;1.45;;;16.90;75.20;;;;;;5069523;28;20132;-59
2023/07/26 06:21:25;;;;;;;2.35;1.60;;;17.00;75.20;;;;;;5076317;28;20482;-59
2023/07/26 06:23:51;;;;;;;6.45;1.48;;;17.10;74.70;;;;;;5076922;28;20095;-59
2023/07/26 06:26:17;;;;;;;1.55;1.30;;;17.20;74.50;;;;;;5081144;28;20036;-60
2023/07/26 06:28:42;;;;;;;2.38;1.48;;;17.30;74.30;;;;;;5077673;28;20043;-59
2023/07/26 06:31:08;;;;;;;2.58;1.77;;;17.40;74.20;;;;;;5077901;28;20032;-60
2023/07/26 06:33:34;;;;;;;1.90;1.48;;;17.40;74.00;;;;;;5070968;28;20035;-59
2023/07/26 06:36:00;;;;;;;2.22;1.70;;;17.50;73.90;;;;;;5075300;28;20028;-59
2023/07/26 06:38:25;;;;;;;2.55;1.58;;;17.60;73.70;;;;;;5080762;28;20020;-60
2023/07/26 06:40:51;;;;;;;2.47;1.70;;;17.70;74.20;;;;;;5078262;28;20032;-59
2023/07/26 06:43:17;;;;;;;1.77;1.50;;;17.70;73.60;;;;;;5073841;28;20024;-60
2023/07/26 06:45:47;;;;;;;3.75;1.83;;;17.70;73.50;;;;;;5075736;28;20031;-61
2023/07/26 06:48:13;;;;;;;1.50;1.20;;;17.80;73.70;;;;;;5076531;28;20119;-62
2023/07/26 06:50:40;;;;;;;2.42;2.00;;;17.70;73.70;;;;;;5071900;28;20034;-62
2023/07/26 06:53:06;;;;;;;2.42;1.60;;;17.80;73.60;;;;;;5077641;28;20031;-63
2023/07/26 06:55:32;;;;;;;4.60;1.70;;;17.70;73.50;;;;;;5076880;28;20032;-62
2023/07/26 06:57:58;;;;;;;2.78;1.63;;;17.70;73.70;;;;;;5072327;28;20032;-62
2023/07/26 07:00:24;;;;;;;4.45;1.75;;;17.70;74.00;;;;;;5074475;28;20395;-62
2023/07/26 07:02:57;;;;;;;3.78;2.30;;;17.60;74.30;;;;;;5070310;28;20017;-62
2023/07/26 07:05:23;;;;;;;2.83;1.88;;;17.60;74.40;;;;;;5072036;28;20472;-62
2023/07/26 07:07:49;;;;;;;2.30;1.70;;;17.60;74.60;;;;;;5058382;28;20043;-62
2023/07/26 07:10:15;;;;;;;3.72;2.33;;;17.60;74.70;;;;;;5062942;28;20021;-62
2023/07/26 07:12:40;;;;;;;5.60;2.78;;;17.50;75.10;;;;;;5054739;28;20112;-62
2023/07/26 07:15:07;;;;;;;5.97;2.15;;;17.50;75.20;;;;;;5063545;28;20032;-62
2023/07/26 07:17:33;;;;;;;3.10;2.10;;;17.50;75.30;;;;;;5070264;28;20033;-62
2023/07/26 07:19:59;;;;;;;4.05;2.17;;;17.50;75.30;;;;;;5076803;28;20994;-62
2023/07/26 07:22:25;;;;;;;3.40;2.20;;;17.60;75.30;;;;;;5080628;28;20137;-62
2023/07/26 07:24:52;;;;;;;2.53;1.83;;;17.50;75.60;;;;;;5076242;28;20394;-62
2023/07/26 07:27:21;;;;;;;4.53;2.25;;;17.50;75.80;;;;;;5076276;28;20035;-61
2023/07/26 07:29:47;;;;;;;4.60;1.95;;;17.50;75.90;;;;;;5081424;28;20033;-62
2023/07/26 07:32:13;;;;;;;6.00;2.38;;;17.40;75.90;;;;;;5061025;28;20032;-62
2023/07/26 07:34:39;;;;;;;2.20;1.67;;;17.40;76.20;;;;;;5072615;28;20055;-62
2023/07/26 07:37:05;;;;;;;4.50;1.77;;;17.30;76.40;;;;;;5076535;28;20029;-63
2023/07/26 07:39:31;;;;;;;5.13;2.72;;;17.20;76.80;;;;;;5062980;28;20033;-63
2023/07/26 07:41:57;;;;;;;2.47;1.73;;;17.10;77.20;;;;;;5073519;28;20024;-63
2023/07/26 07:44:22;;;;;;;2.42;1.50;;;17.10;77.70;;;;;;5074825;28;20482;-64
2023/07/26 07:46:48;;;;;;;3.58;2.45;;;16.80;77.20;;;;;;5074661;28;20028;-64
2023/07/26 07:49:14;;;;;;;3.42;1.38;;;16.50;77.70;;;;;;5075946;28;20072;-64
2023/07/26 07:51:40;;;;;;;1.85;1.45;;;16.40;78.20;;;;;;5073733;28;20449;-64
2023/07/26 07:54:05;;;;;;;2.72;1.33;;;16.20;78.60;;;;;;5071884;28;20381;-64
2023/07/26 07:56:31;;;;;;;2.67;1.95;;;16.10;78.80;;;;;;5073788;28;20097;-63
2023/07/26 07:58:57;;;;;;;2.20;1.10;;;16.00;79.30;;;;;;5077941;28;20104;-63
2023/07/26 08:01:23;;;;;;;1.50;1.10;;;15.90;79.50;;;;;;5072200;28;20113;-63
2023/07/26 08:03:49;;;;;;;1.33;0.63;;;15.90;79.50;;;;;;5072463;28;20391;-62
2023/07/26 08:06:14;;;;;;;0.90;0.77;;;16.00;79.30;;;;;;5071512;28;20039;-63
2023/07/26 08:08:40;;;;;;;1.33;0.77;;;16.10;79.10;;;;;;5073806;28;20032;-64
2023/07/26 08:11:09;;;;;;;1.48;0.70;;;16.10;78.80;;;;;;5070831;28;20110;-62
2023/07/26 08:13:35;;;;;;;1.00;0.82;;;16.10;78.60;;;;;;5077807;28;20070;-63
2023/07/26 08:16:01;;;;;;;0.60;0.60;;;16.10;78.60;;;;;;5070255;28;20095;-64
2023/07/26 08:18:27;;;;;;;0.93;0.52;;;16.10;78.60;;;;;;5061706;28;20021;-64
2023/07/26 08:20:53;;;;;;;0.75;0.63;;;16.20;78.50;;;;;;5081461;28;20050;-64
2023/07/26 08:23:19;;;;;;;1.05;0.88;;;16.30;78.40;;;;;;5082476;28;20028;-65
2023/07/26 08:25:44;;;;;;;0.50;0.50;;;16.50;78.30;;;;;;5078035;28;20044;-65
2023/07/26 08:28:10;;;;;;;0.60;0.43;;;16.60;77.90;;;;;;5077718;28;20061;-63
2023/07/26 08:30:37;;;;;;;0.82;0.57;;;16.80;78.10;;;;;;5081835;28;20039;-63
2023/07/26 08:33:03;;;;;;;0.73;0.50;;;17.00;77.70;;;;;;5077279;28;20475;-63
2023/07/26 08:35:29;;;;;;;0.85;0.73;;;17.20;77.50;;;;;;5083792;28;20032;-63
2023/07/26 08:37:55;;;;;;;0.60;0.60;;;17.40;77.20;;;;;;5081428;28;20103;-63
2023/07/26 08:40:21;;;;;;;0.77;0.57;;;17.50;76.70;;;;;;5078840;28;20131;-63
2023/07/26 08:42:47;;;;;;;0.70;0.60;;;17.50;76.20;;;;;;5079380;28;20031;-63
2023/07/26 08:45:14;;;;;;;0.70;0.60;;;17.60;76.50;;;;;;5067708;28;20028;-63
2023/07/26 08:47:40;;;;;;;0.52;0.50;;;17.80;76.30;;;;;;5076592;28;20032;-63
2023/07/26 08:50:07;;;;;;;0.85;0.68;;;17.80;76.00;;;;;;5079534;28;20040;-63
2023/07/26 08:52:34;;;;;;;0.93;0.43;;;18.00;75.90;;;;;;5074027;28;20040;-63
2023/07/26 08:55:00;;;;;;;0.80;0.60;;;18.20;75.70;;;;;;5079232;28;20089;-63
2023/07/26 08:57:26;;;;;;;0.85;0.70;;;18.30;75.70;;;;;;5079623;28;20037;-63
2023/07/26 08:59:52;;;;;;;0.60;0.55;;;18.40;76.30;;;;;;5087374;28;20025;-64
2023/07/26 09:02:19;;;;;;;1.65;0.50;;;18.50;75.40;;;;;;5080356;28;20478;-63
2023/07/26 09:04:47;;;;;;;0.85;0.85;;;18.50;75.30;;;;;;5076495;28;20782;-63
2023/07/26 09:07:13;;;;;;;0.60;0.60;;;18.50;74.60;;;;;;5060315;28;20491;-63
2023/07/26 09:09:40;;;;;;;0.52;0.52;;;18.50;74.80;;;;;;5070246;28;20029;-62
2023/07/26 09:12:07;;;;;;;0.70;0.70;;;18.60;74.80;;;;;;5072752;28;20081;-63
2023/07/26 09:14:34;;;;;;;1.52;0.80;;;18.60;74.80;;;;;;5073131;28;20052;-62
2023/07/26 09:17:01;;;;;;;1.77;1.05;;;18.70;74.90;;;;;;5077809;28;20051;-63
2023/07/26 09:19:32;;;;;;;1.23;1.00;;;18.80;74.10;;;;;;5078187;28;20029;-63
2023/07/26 09:21:59;;;;;;;0.82;0.70;;;18.80;73.60;;;;;;5067493;28;20025;-60
2023/07/26 09:24:41;;;;;;;1.15;1.02;;;18.90;73.50;;;;;;5073831;28;20036;-60
2023/07/26 09:27:10;;;;;;;1.25;1.15;;;19.00;73.30;;;;;;5073197;28;20039;-60
2023/07/26 09:29:39;;;;;;;1.13;1.02;;;19.10;73.20;;;;;;5086411;28;20051;-60
2023/07/26 09:32:06;;;;;;;1.05;0.90;;;19.10;73.20;;;;;;5084442;28;20028;-62
2023/07/26 09:34:32;;;;;;;1.60;1.00;;;19.20;72.90;;;;;;5086473;28;20051;-62
2023/07/26 09:36:59;;;;;;;0.73;0.70;;;19.30;72.90;;;;;;5080844;28;20089;-62
2023/07/26 09:39:27;;;;;;;1.90;0.95;;;19.40;73.00;;;;;;5081917;28;20376;-60
2023/07/26 09:42:08;;;;;;;1.85;1.02;;;19.50;72.80;;;;;;5079688;28;20107;-60
2023/07/26 09:44:35;;;;;;;2.60;1.48;;;19.70;72.90;;;;;;5066904;28;20032;-60
2023/07/26 09:47:02;;;;;;;0.88;0.82;;;19.80;72.30;;;;;;5074943;28;20073;-63
2023/07/26 09:49:29;;;;;;;3.15;1.35;;;19.80;71.80;;;;;;5086830;28;20040;-62
2023/07/26 09:52:00;;;;;;;2.63;1.80;;;19.90;71.70;;;;;;5073017;28;20036;-63
2023/07/26 09:54:34;;;;;;;1.40;1.30;;;20.00;71.20;;;;;;5076599;28;20033;-63
2023/07/26 09:57:00;;;;;;;1.65;1.23;;;20.00;71.40;;;;;;5080768;28;20028;-63
2023/07/26 09:59:30;;;;;;;2.10;1.23;;;20.20;71.50;;;;;;5083523;28;20043;-62
2023/07/26 10:02:02;;;;;;;2.00;1.80;;;20.40;70.90;;;;;;5066392;28;20369;-60
2023/07/26 10:04:33;;;;;;;2.38;1.27;;;20.50;70.50;;;;;;5077523;28;20360;-60
2023/07/26 10:07:02;;;;;;;1.90;1.10;;;20.60;70.20;;;;;;5070006;28;20028;-61
2023/07/26 10:09:32;;;;;;;5.43;1.80;;;20.70;69.60;;;;;;5076442;28;20403;-61
2023/07/26 10:12:02;;;;;;;3.42;1.58;;;20.80;68.10;;;;;;5064497;28;20380;-61
2023/07/26 10:14:31;;;;;;;1.77;1.27;;;20.70;68.20;;;;;;5073442;28;20028;-61
2023/07/26 10:16:58;;;;;;;6.82;1.63;;;20.80;68.10;;;;;;5075666;28;20032;-63
2023/07/26 10:19:28;;;;;;;3.08;1.05;;;20.90;67.60;;;;;;5080416;28;20467;-61
2023/07/26 10:21:56;;;;;;;3.83;1.33;;;20.90;67.60;;;;;;5073131;28;20459;-60
2023/07/26 10:24:22;;;;;;;6.18;1.75;;;20.90;67.70;;;;;;5073025;28;20031;-61
2023/07/26 10:26:49;;;;;;;2.47;1.67;;;20.80;66.90;;;;;;5071306;28;20114;-61
2023/07/26 10:29:16;;;;;;;1.58;1.33;;;20.60;67.20;;;;;;5072486;28;20150;-61
2023/07/26 10:31:44;;;;;;;3.58;1.20;;;20.30;68.10;;;;;;5075901;28;20043;-61
2023/07/26 10:34:17;;;;;;;1.40;1.20;;;20.20;68.60;;;;;;5079901;28;20403;-61
2023/07/26 10:36:43;;;;;;;4.15;1.30;;;20.00;70.00;;;;;;5069364;28;20024;-60
2023/07/26 10:39:11;;;;;;;3.80;1.50;;;19.70;70.40;;;;;;5073812;28;20036;-60
2023/07/26 10:41:46;;;;;;;1.70;1.30;;;19.30;71.10;;;;;;5071282;28;20165;-61
2023/07/26 10:44:11;;;;;;;1.65;0.95;;;19.10;71.80;;;;;;5074205;28;20028;-61
2023/07/26 10:47:03;;;;;;;1.02;0.93;;;18.90;72.60;;;;;;5072466;28;20032;-61
2023/07/26 10:49:32;;;;;;;1.77;1.00;;;18.90;72.80;;;;;;5068461;28;20471;-61
2023/07/26 10:52:04;;;;;;;3.15;1.20;;;18.90;73.40;;;;;;5071276;28;20019;-61
2023/07/26 10:54:49;;;;;;;0.75;0.73;;;18.90;73.50;;;;;;5079093;28;20071;-63
2023/07/26 10:57:36;;;;;;;0.80;0.80;;;19.00;73.50;;;;;;5070250;28;20033;-61
2023/07/26 11:00:17;;;;;;;1.55;1.15;;;19.00;73.60;;;;;;5078075;28;20442;-63
2023/07/26 11:03:10;;;;;;;0.90;0.90;;;19.30;73.70;;;;;;5079308;28;20177;-63
2023/07/26 11:05:38;;;;;;;1.70;1.15;;;19.80;73.20;;;;;;5073735;28;20085;-61
2023/07/26 11:08:05;;;;;;;2.83;1.25;;;20.10;72.60;;;;;;5072626;28;20087;-61
2023/07/26 11:10:36;;;;;;;1.08;0.77;;;20.40;72.40;;;;;;5071911;28;20029;-61
2023/07/26 11:13:07;;;;;;;1.63;0.90;;;20.60;71.80;;;;;;5072009;28;20467;-61
2023/07/26 11:15:34;;;;;;;1.13;0.77;;;20.90;71.50;;;;;;5066226;28;20040;-61
2023/07/26 11:18:00;;;;;;;1.23;1.10;;;21.30;70.90;;;;;;5066650;28;20078;-62
2023/07/26 11:20:26;;;;;;;1.25;0.98;;;21.70;70.60;;;;;;5070511;28;20025;-61
2023/07/26 11:22:52;;;;;;;2.55;1.08;;;22.10;70.00;;;;;;5073199;28;20028;-61
2023/07/26 11:25:19;;;;;;;0.77;0.73;;;22.30;68.90;;;;;;5074844;28;20106;-62
2023/07/26 11:27:50;;;;;;;3.28;0.65;;;22.30;68.50;;;;;;5084000;28;20449;-61
2023/07/26 11:30:17;;;;;;;0.80;0.80;;;22.10;67.90;;;;;;5072805;28;20379;-62
2023/07/26 11:32:52;;;;;;;1.35;0.90;;;22.00;68.20;;;;;;5077308;28;20020;-62
2023/07/26 11:35:19;;;;;;;1.33;0.90;;;22.00;68.00;;;;;;5071693;28;20060;-61
2023/07/26 11:37:56;;;;;;;2.05;1.40;;;22.10;67.30;;;;;;5079896;28;20033;-61
2023/07/26 11:40:25;;;;;;;1.25;0.90;;;22.40;66.10;;;;;;5078454;28;20024;-62
2023/07/26 11:42:50;;;;;;;1.65;1.10;;;22.60;65.50;;;;;;5081965;28;20082;-62
2023/07/26 11:45:16;;;;;;;1.08;1.00;;;22.70;65.10;;;;;;5069873;28;20040;-62
2023/07/26 11:47:43;;;;;;;3.50;1.05;;;22.70;64.70;;;;;;5058805;28;20498;-61
2023/07/26 11:50:09;;;;;;;1.45;1.00;;;22.50;64.80;;;;;;5072356;28;20383;-62
2023/07/26 11:52:36;;;;;;;0.80;0.80;;;22.20;65.40;;;;;;5073456;28;20027;-62
2023/07/26 11:55:04;;;;;;;2.97;1.02;;;22.10;65.60;;;;;;5073441;28;20127;-62
2023/07/26 11:57:31;;;;;;;2.90;1.40;;;22.30;65.90;;;;;;5077907;28;20029;-62
2023/07/26 11:59:59;;;;;;;1.75;1.02;;;22.70;65.50;;;;;;5071102;28;20064;-63
2023/07/26 12:02:26;;;;;;;1.30;1.08;;;23.10;64.70;;;;;;5058074;28;20391;-62
2023/07/26 12:05:20;;;;;;;0.85;0.70;;;23.40;64.70;;;;;;5071857;28;20487;-62
2023/07/26 12:07:51;;;;;;;1.27;0.70;;;23.70;61.70;;;;;;5075051;28;20161;-61
2023/07/26 12:10:19;;;;;;;2.13;1.13;;;23.70;59.80;;;;;;5077257;28;20040;-61
2023/07/26 12:12:44;;;;;;;0.75;0.70;;;23.50;59.50;;;;;;5071327;28;20029;-61
2023/07/26 12:15:11;;;;;;;1.23;0.77;;;23.10;60.40;;;;;;5060539;28;20051;-62
2023/07/26 12:17:54;;;;;;;1.67;1.02;;;22.80;60.10;;;;;;5063555;28;20501;-61
2023/07/26 12:20:20;;;;;;;0.63;0.60;;;22.50;60.60;;;;;;5067046;28;20016;-61
2023/07/26 12:22:54;;;;;;;1.33;0.80;;;22.20;61.40;;;;;;5076032;28;20048;-61
2023/07/26 12:25:21;;;;;;;1.27;0.90;;;22.00;61.90;;;;;;5074579;28;20283;-61
2023/07/26 12:27:48;;;;;;;0.82;0.77;;;21.90;62.00;;;;;;5072399;28;20024;-61
2023/07/26 12:30:17;;;;;;;1.80;0.80;;;21.80;62.40;;;;;;5077837;28;20043;-61
2023/07/26 12:32:43;;;;;;;0.75;0.70;;;21.80;62.90;;;;;;5077027;28;20024;-61
2023/07/26 12:35:22;;;;;;;2.70;1.13;;;22.10;62.70;;;;;;5068383;28;20043;-62
2023/07/26 12:37:52;;;;;;;1.02;0.90;;;22.40;62.30;;;;;;5080087;28;20024;-61
2023/07/26 12:40:19;;;;;;;1.15;0.70;;;22.70;61.40;;;;;;5073689;28;20510;-61
2023/07/26 12:42:44;;;;;;;0.98;0.70;;;23.10;59.90;;;;;;5073577;28;20105;-61
2023/07/26 12:45:10;;;;;;;1.27;0.60;;;23.40;58.50;;;;;;5074349;28;20067;-61
2023/07/26 12:47:36;;;;;;;1.02;0.95;;;23.70;57.60;;;;;;5083535;28;20490;-61
2023/07/26 12:50:02;;;;;;;1.40;0.80;;;24.00;57.50;;;;;;5072968;28;20028;-61